createdAt,value
2022-10-11T00:01:31.401Z,100959.00
2022-10-11T00:04:39.330Z,100962.53
2022-10-11T00:07:47.881Z,100950.16
2022-10-11T00:11:07.347Z,100945.34
2022-10-11T00:14:22.359Z,100952.34
2022-10-11T00:17:31.903Z,100949.94
2022-10-11T00:20:46.351Z,100943.75
2022-10-11T00:23:55.344Z,100948.87
2022-10-11T00:27:10.347Z,100935.25
2022-10-11T00:30:25.341Z,100937.97
2022-10-11T00:33:27.386Z,100944.78
2022-10-11T00:36:42.361Z,100934.31
2022-10-11T00:39:50.884Z,100931.13
2022-10-11T00:43:05.343Z,100936.00
2022-10-11T00:46:20.374Z,100945.97
2022-10-11T00:49:49.193Z,100938.13
2022-10-11T00:53:07.363Z,100938.09
2022-10-11T00:56:34.364Z,100933.53
2022-10-11T00:59:41.367Z,100917.69
2022-10-11T01:02:57.359Z,100928.00
2022-10-11T01:05:59.084Z,100927.22
2022-10-11T01:09:13.348Z,100931.81
2022-10-11T01:12:26.380Z,100915.69
2022-10-11T01:15:37.552Z,100911.69
2022-10-11T01:19:11.367Z,100920.59
2022-10-11T01:22:46.347Z,100921.16
2022-10-11T01:26:12.845Z,100933.56
2022-10-11T01:29:56.358Z,100929.56
2022-10-11T01:33:30.371Z,100925.50
2022-10-11T01:36:39.837Z,100921.16
2022-10-11T01:40:11.372Z,100920.91
2022-10-11T01:43:28.391Z,100933.00
2022-10-11T01:46:31.591Z,100922.84
2022-10-11T01:49:46.373Z,100918.28
2022-10-11T01:52:56.961Z,100915.84
2022-10-11T01:56:39.361Z,100912.44
2022-10-11T02:00:01.356Z,100913.19
2022-10-11T02:03:33.921Z,100907.84
2022-10-11T02:07:03.369Z,100911.06
2022-10-11T02:10:26.373Z,100908.37
2022-10-11T02:13:47.348Z,100899.78
2022-10-11T02:17:06.371Z,100899.25
2022-10-11T02:20:20.347Z,100907.31
2022-10-11T02:23:36.737Z,100905.19
2022-10-11T02:26:56.351Z,100891.06
2022-10-11T02:30:07.384Z,100912.25
2022-10-11T02:33:19.354Z,100899.88
2022-10-11T02:36:49.379Z,100905.50
2022-10-11T02:40:05.126Z,100916.50
2022-10-11T02:43:34.386Z,100916.22
2022-10-11T02:46:45.273Z,100917.31
2022-10-11T02:49:53.394Z,100898.75
2022-10-11T02:53:01.822Z,100908.97
2022-10-11T02:56:16.366Z,100917.53
2022-10-11T02:59:38.348Z,100919.16
2022-10-11T03:02:46.366Z,100926.13
2022-10-11T03:06:06.762Z,100918.09
2022-10-11T03:09:15.376Z,100930.44
2022-10-11T03:12:23.874Z,100923.16
2022-10-11T03:15:32.368Z,100921.22
2022-10-11T03:18:40.931Z,100923.41
2022-10-11T03:21:55.379Z,100911.66
2022-10-11T03:25:10.346Z,100925.59
2022-10-11T03:28:19.475Z,100918.31
2022-10-11T03:31:27.869Z,100918.53
2022-10-11T03:34:42.371Z,100918.50
2022-10-11T03:37:50.951Z,100926.03
2022-10-11T03:40:59.405Z,100931.91
2022-10-11T03:44:07.886Z,100922.75
2022-10-11T03:47:16.374Z,100927.34
2022-10-11T03:50:31.384Z,100921.97
2022-10-11T03:53:33.195Z,100933.50
2022-10-11T03:56:48.363Z,100934.31
2022-10-11T04:00:05.346Z,100936.44
2022-10-11T04:03:20.357Z,100938.34
2022-10-11T04:06:35.378Z,100934.31
2022-10-11T04:09:44.106Z,100939.41
2022-10-11T04:12:52.371Z,100940.19
2022-10-11T04:16:07.654Z,100943.19
2022-10-11T04:19:09.699Z,100944.25
2022-10-11T04:22:24.378Z,100942.88
2022-10-11T04:25:26.173Z,100950.09
2022-10-11T04:28:48.490Z,100945.78
2022-10-11T04:31:50.499Z,100947.69
2022-10-11T04:35:05.377Z,100945.50
2022-10-11T04:38:20.389Z,100906.22
2022-10-11T04:41:28.382Z,100940.12
2022-10-11T04:44:43.373Z,100944.72
2022-10-11T04:47:45.157Z,100942.25
2022-10-11T04:51:00.372Z,100943.88
2022-10-11T04:54:15.376Z,100937.69
2022-10-11T04:57:30.571Z,100945.34
2022-10-11T05:00:45.365Z,100944.84
2022-10-11T05:04:00.364Z,100941.03
2022-10-11T05:07:02.130Z,100960.66
2022-10-11T05:10:17.353Z,100955.00
2022-10-11T05:13:27.144Z,100934.41
2022-10-11T05:16:42.385Z,100943.19
2022-10-11T05:19:50.380Z,100953.62
2022-10-11T05:22:58.889Z,100950.69
2022-10-11T05:26:13.400Z,100950.09
2022-10-11T05:29:15.645Z,100960.03
2022-10-11T05:32:30.373Z,100950.69
2022-10-11T05:35:32.107Z,100959.81
2022-10-11T05:38:47.371Z,100958.47
2022-10-11T05:42:03.827Z,100965.41
2022-10-11T05:45:15.416Z,100968.38
2022-10-11T05:48:23.954Z,100950.72
2022-10-11T05:51:38.385Z,100973.72
2022-10-11T05:54:47.861Z,100976.91
2022-10-11T05:58:09.381Z,100984.44
2022-10-11T06:01:19.880Z,100983.81
2022-10-11T06:04:34.380Z,100984.31
2022-10-11T06:07:43.305Z,100995.53
2022-10-11T06:10:51.392Z,100996.28
2022-10-11T06:14:06.354Z,100991.69
2022-10-11T06:17:08.093Z,100991.34
2022-10-11T06:20:24.366Z,101000.44
2022-10-11T06:23:33.387Z,100996.37
2022-10-11T06:26:41.931Z,101005.25
2022-10-11T06:29:56.367Z,101003.09
2022-10-11T06:33:11.374Z,101007.91
2022-10-11T06:36:26.394Z,101004.13
2022-10-11T06:39:41.364Z,101006.25
2022-10-11T06:42:47.488Z,101004.88
2022-10-11T06:46:06.662Z,101011.50
2022-10-11T06:49:08.787Z,101018.72
2022-10-11T06:52:23.399Z,101002.31
2022-10-11T06:55:31.404Z,101013.56
2022-10-11T06:58:53.387Z,101016.72
2022-10-11T07:02:08.385Z,101020.09
2022-10-11T07:05:24.381Z,101017.34
2022-10-11T07:08:32.403Z,101010.00
2022-10-11T07:11:47.386Z,101019.00
2022-10-11T07:14:55.384Z,101024.88
2022-10-11T07:18:04.792Z,101023.41
2022-10-11T07:21:21.392Z,101033.66
2022-10-11T07:24:23.166Z,101032.91
2022-10-11T07:27:39.423Z,101032.34
2022-10-11T07:30:55.379Z,101033.22
2022-10-11T07:34:11.409Z,101022.25
2022-10-11T07:37:13.258Z,101037.88
2022-10-11T07:40:29.365Z,101043.00
2022-10-11T07:43:31.641Z,101021.38
2022-10-11T07:46:46.450Z,101038.31
2022-10-11T07:50:01.783Z,101046.00
2022-10-11T07:53:04.396Z,101036.69
2022-10-11T07:56:21.373Z,101029.84
2022-10-11T07:59:29.973Z,101021.81
2022-10-11T08:02:38.370Z,101034.19
2022-10-11T08:05:53.388Z,101044.72
2022-10-11T08:09:09.379Z,101041.00
2022-10-11T08:12:17.421Z,101040.09
2022-10-11T08:15:32.392Z,101037.34
2022-10-11T08:18:47.390Z,101038.09
2022-10-11T08:21:55.389Z,101036.97
2022-10-11T08:25:04.242Z,101039.28
2022-10-11T08:28:13.432Z,101035.91
2022-10-11T08:31:22.903Z,101039.12
2022-10-11T08:34:37.651Z,101045.12
2022-10-11T08:37:52.385Z,101047.44
2022-10-11T08:41:08.390Z,101041.47
2022-10-11T08:44:22.067Z,101040.53
2022-10-11T08:47:37.528Z,101040.63
2022-10-11T08:50:57.393Z,101043.94
2022-10-11T08:54:28.335Z,101036.25
2022-10-11T08:57:55.395Z,101048.41
2022-10-11T09:01:13.445Z,101048.41
2022-10-11T09:04:17.820Z,101038.53
2022-10-11T09:07:53.389Z,101041.50
2022-10-11T09:11:23.149Z,101041.97
2022-10-11T09:15:00.821Z,101041.44
2022-10-11T09:18:08.756Z,101041.16
2022-10-11T09:21:43.376Z,101039.97
2022-10-11T09:25:09.452Z,101038.38
2022-10-11T09:28:39.348Z,101033.56
2022-10-11T09:31:58.409Z,101047.59
2022-10-11T09:35:10.604Z,101049.81
2022-10-11T09:38:33.528Z,101041.03
2022-10-11T09:42:00.387Z,101049.50
2022-10-11T09:45:02.634Z,101046.59
2022-10-11T09:48:29.547Z,101051.00
2022-10-11T09:51:47.398Z,101045.66
2022-10-11T09:54:51.691Z,101037.59
2022-10-11T09:58:33.395Z,101041.53
2022-10-11T10:01:48.440Z,101032.16
2022-10-11T10:05:04.714Z,101046.56
2022-10-11T10:08:22.402Z,101047.09
2022-10-11T10:11:30.428Z,101046.78
2022-10-11T10:14:41.327Z,101043.63
2022-10-11T10:17:58.460Z,101037.53
2022-10-11T10:21:01.358Z,101041.97
2022-10-11T10:24:25.565Z,101036.41
2022-10-11T10:27:41.385Z,101032.41
2022-10-11T10:30:55.626Z,101037.16
2022-10-11T10:34:19.407Z,101029.84
2022-10-11T10:37:58.398Z,101022.84
2022-10-11T10:41:12.503Z,101029.28
2022-10-11T10:44:27.397Z,101022.09
2022-10-11T10:48:12.784Z,101018.25
2022-10-11T10:51:33.385Z,101021.44
2022-10-11T10:55:19.403Z,101024.28
2022-10-11T10:58:50.781Z,101027.66
2022-10-11T11:02:39.501Z,101011.31
2022-10-11T11:06:02.553Z,101025.00
2022-10-11T11:09:53.400Z,101013.03
2022-10-11T11:13:11.546Z,101013.03
2022-10-11T11:16:47.482Z,101010.84
2022-10-11T11:20:17.791Z,101012.03
2022-10-11T11:23:55.059Z,101015.12
2022-10-11T11:27:07.389Z,101012.38
2022-10-11T11:30:36.397Z,101004.81
2022-10-11T11:34:07.386Z,100997.84
2022-10-11T11:37:19.214Z,101003.75
2022-10-11T11:40:49.700Z,101006.00
2022-10-11T11:44:10.404Z,101008.12
2022-10-11T11:47:43.411Z,101006.34
2022-10-11T11:51:14.413Z,100994.53
2022-10-11T11:55:07.461Z,100991.66
2022-10-11T12:02:38.422Z,101001.56
2022-10-11T12:06:23.529Z,100997.00
2022-10-11T12:09:40.419Z,100999.50
2022-10-11T12:12:42.611Z,100989.44
2022-10-11T12:16:08.427Z,100976.94
2022-10-11T12:19:14.000Z,100987.19
2022-10-11T12:22:34.408Z,100984.22
2022-10-11T12:25:46.396Z,100977.44
2022-10-11T12:29:47.465Z,100979.00
2022-10-11T12:33:19.399Z,100985.00
2022-10-11T12:36:34.420Z,100974.28
2022-10-11T12:39:51.671Z,100966.22
2022-10-11T12:43:23.424Z,100963.19
2022-10-11T12:46:31.904Z,100965.56
2022-10-11T12:50:09.483Z,100963.66
2022-10-11T12:53:37.859Z,100965.34
2022-10-11T12:57:12.363Z,100971.59
2022-10-11T13:00:38.428Z,100966.31
2022-10-11T13:03:44.480Z,100958.84
2022-10-11T13:07:06.852Z,100957.22
2022-10-11T13:10:37.426Z,100960.81
2022-10-11T13:14:16.484Z,100957.41
2022-10-11T13:17:38.678Z,100962.97
2022-10-11T13:20:47.418Z,100967.75
2022-10-11T13:24:16.420Z,100967.28
2022-10-11T13:27:33.436Z,100965.56
2022-10-11T13:30:37.196Z,100960.59
2022-10-11T13:34:10.481Z,100958.53
2022-10-11T13:37:31.502Z,100964.44
2022-10-11T13:41:31.877Z,100968.87
2022-10-11T13:44:48.405Z,100963.66
2022-10-11T13:47:58.419Z,100964.38
2022-10-11T13:51:33.437Z,100964.69
2022-10-11T13:55:07.434Z,100966.63
2022-10-11T13:58:33.460Z,100963.81
2022-10-11T14:01:45.371Z,100972.34
2022-10-11T14:05:00.458Z,100969.84
2022-10-11T14:08:38.461Z,100966.38
2022-10-11T14:11:47.462Z,100972.44
2022-10-11T14:15:02.437Z,100965.13
2022-10-11T14:18:48.438Z,100971.88
2022-10-11T14:21:56.993Z,100972.84
2022-10-11T14:25:05.482Z,100963.09
2022-10-11T14:28:13.999Z,100968.38
2022-10-11T14:31:28.483Z,100971.25
2022-10-11T14:34:38.426Z,100974.62
2022-10-11T14:37:53.432Z,100974.00
2022-10-11T14:41:01.440Z,100977.06
2022-10-11T14:44:16.427Z,100972.59
2022-10-11T14:47:25.032Z,100971.03
2022-10-11T14:50:43.445Z,100969.13
2022-10-11T14:53:58.483Z,100968.66
2022-10-11T14:57:09.454Z,100972.34
2022-10-11T15:00:26.916Z,100975.87
2022-10-11T15:03:41.482Z,100960.25
2022-10-11T15:06:43.262Z,100966.47
2022-10-11T15:09:58.431Z,100972.37
2022-10-11T15:13:08.529Z,100968.41
2022-10-11T15:16:19.458Z,100971.56
2022-10-11T15:19:35.464Z,100914.78
2022-10-11T15:22:43.996Z,100981.19
2022-10-11T15:25:58.461Z,100982.13
2022-10-11T15:29:17.446Z,100982.56
2022-10-11T15:32:25.434Z,100988.47
2022-10-11T15:35:40.427Z,100987.19
2022-10-11T15:38:49.300Z,100988.78
2022-10-11T15:41:57.441Z,100987.97
2022-10-11T15:45:06.129Z,100996.06
2022-10-11T15:48:22.452Z,101000.00
2022-10-11T15:51:37.464Z,100997.59
2022-10-11T15:54:45.987Z,101004.25
2022-10-11T15:57:54.460Z,101004.53
2022-10-11T16:01:21.475Z,101002.09
2022-10-11T16:04:36.456Z,101009.69
2022-10-11T16:07:51.465Z,101005.94
2022-10-11T16:11:00.659Z,101013.37
2022-10-11T16:14:15.711Z,101008.81
2022-10-11T16:17:17.535Z,101009.69
2022-10-11T16:20:32.443Z,101018.53
2022-10-11T16:23:47.475Z,101009.19
2022-10-11T16:26:49.246Z,101018.38
2022-10-11T16:30:04.515Z,101018.56
2022-10-11T16:33:14.446Z,101025.31
2022-10-11T16:36:30.456Z,101036.56
2022-10-11T16:39:46.427Z,101036.66
2022-10-11T16:42:48.381Z,101040.19
2022-10-11T16:46:05.837Z,101041.69
2022-10-11T16:49:17.771Z,101040.00
2022-10-11T16:52:26.484Z,101048.62
2022-10-11T16:55:34.963Z,101048.31
2022-10-11T16:58:43.450Z,101050.09
2022-10-11T17:02:05.452Z,101042.41
2022-10-11T17:05:20.470Z,101053.63
2022-10-11T17:08:28.483Z,101056.50
2022-10-11T17:11:37.380Z,101060.91
2022-10-11T17:14:52.449Z,101061.63
2022-10-11T17:18:07.456Z,101073.44
2022-10-11T17:21:24.466Z,101065.00
2022-10-11T17:24:26.663Z,101071.53
2022-10-11T17:27:41.511Z,101075.00
2022-10-11T17:31:04.063Z,101076.12
2022-10-11T17:34:21.775Z,101080.53
2022-10-11T17:37:23.655Z,101071.94
2022-10-11T17:40:38.739Z,101084.91
2022-10-11T17:43:54.450Z,101088.16
2022-10-11T17:47:03.719Z,101089.53
2022-10-11T17:50:18.778Z,101087.13
2022-10-11T17:53:33.509Z,101084.91
2022-10-11T17:56:38.180Z,101087.34
2022-10-11T17:59:53.482Z,101086.03
2022-10-11T18:03:01.997Z,101085.53
2022-10-11T18:06:19.486Z,101087.63
2022-10-11T18:09:34.858Z,101087.13
2022-10-11T18:12:43.578Z,101086.12
2022-10-11T18:15:59.545Z,101090.03
2022-10-11T18:19:10.524Z,101090.22
2022-10-11T18:22:19.888Z,101094.41
2022-10-11T18:25:34.517Z,101104.28
2022-10-11T18:28:44.113Z,101100.91
2022-10-11T18:31:52.504Z,101101.28
2022-10-11T18:35:07.868Z,101102.69
2022-10-11T18:38:16.082Z,101099.72
2022-10-11T18:41:34.034Z,101105.75
2022-10-11T18:44:42.431Z,101103.31
2022-10-11T18:48:00.518Z,101099.03
2022-10-11T18:51:12.672Z,101102.81
2022-10-11T18:54:27.572Z,101097.22
2022-10-11T18:57:43.871Z,101097.00
2022-10-11T19:00:53.078Z,101099.56
2022-10-11T19:04:16.508Z,101097.75
2022-10-11T19:07:26.510Z,101095.19
2022-10-11T19:10:35.440Z,101099.38
2022-10-11T19:13:51.834Z,101101.16
2022-10-11T19:16:55.671Z,101094.22
2022-10-11T19:20:11.502Z,101097.56
2022-10-11T19:23:13.514Z,101097.13
2022-10-11T19:26:34.487Z,101094.81
2022-10-11T19:29:49.457Z,101103.53
2022-10-11T19:33:04.488Z,101094.22
2022-10-11T19:36:49.884Z,101095.16
2022-10-11T19:39:58.512Z,101105.13
2022-10-11T19:51:11.865Z,101113.38
2022-10-11T19:54:26.549Z,101106.72
2022-10-11T19:57:35.348Z,101107.28
2022-10-11T20:00:52.855Z,101109.47
2022-10-11T20:04:39.428Z,101097.19
2022-10-11T20:07:40.255Z,101110.91
2022-10-11T20:10:55.500Z,101114.13
2022-10-11T20:14:10.505Z,101116.00
2022-10-11T20:17:18.549Z,101121.34
2022-10-11T20:20:34.585Z,101118.59
2022-10-11T20:27:02.489Z,101102.94
2022-10-11T20:30:12.778Z,101122.78
2022-10-11T20:33:21.465Z,101114.38
2022-10-11T20:36:37.503Z,101114.31
2022-10-11T20:39:39.306Z,101107.00
2022-10-11T20:42:54.594Z,101127.00
2022-10-11T20:46:08.871Z,101128.91
2022-10-11T20:49:18.489Z,101126.78
2022-10-11T20:52:41.462Z,101131.16
2022-10-11T20:55:57.508Z,101124.13
2022-10-11T20:58:59.819Z,101128.28
2022-10-11T21:02:21.516Z,101133.44
2022-10-11T21:05:30.241Z,101132.37
2022-10-11T21:08:46.508Z,101128.66
2022-10-11T21:11:48.303Z,101134.56
2022-10-11T21:15:04.508Z,101129.00
2022-10-11T21:18:13.859Z,101132.16
2022-10-11T21:21:28.506Z,101133.19
2022-10-11T21:24:43.480Z,101128.31
2022-10-11T21:27:52.040Z,101124.47
2022-10-11T21:31:15.492Z,101133.06
2022-10-11T21:34:30.507Z,101135.19
2022-10-11T21:37:39.089Z,101130.88
2022-10-11T21:40:53.570Z,101132.03
2022-10-11T21:44:08.501Z,101133.41
2022-10-11T21:47:23.487Z,101136.47
2022-10-11T21:50:41.478Z,101129.53
2022-10-11T21:53:43.299Z,101135.50
2022-10-11T21:56:58.493Z,101131.00
2022-10-11T22:00:10.554Z,101137.47
2022-10-11T22:03:35.338Z,101139.78
2022-10-11T22:06:37.512Z,101136.19
2022-10-11T22:09:52.490Z,101135.37
2022-10-11T22:13:00.510Z,101132.75
2022-10-11T22:16:12.299Z,101128.50
2022-10-11T22:19:23.502Z,101122.97
2022-10-11T22:22:38.562Z,101125.47
2022-10-11T22:25:40.818Z,101130.59
2022-10-11T22:28:55.546Z,101121.59
2022-10-11T22:31:57.423Z,101135.06
2022-10-11T22:35:12.608Z,101141.09
2022-10-11T22:38:21.276Z,101134.22
2022-10-11T22:41:37.502Z,101138.37
2022-10-11T22:44:52.481Z,101142.25
2022-10-11T22:48:03.495Z,101140.69
2022-10-11T22:51:12.010Z,101125.22
2022-10-11T22:54:20.488Z,101141.28
2022-10-11T22:57:35.572Z,101137.56
2022-10-11T23:00:44.492Z,101140.28
2022-10-11T23:04:01.765Z,101126.91
2022-10-11T23:07:10.525Z,101145.06
2022-10-11T23:10:26.497Z,101133.47
2022-10-11T23:13:28.250Z,101139.56
2022-10-11T23:16:43.522Z,101143.34
2022-10-11T23:19:45.294Z,101150.31
2022-10-11T23:23:00.475Z,101156.81
2022-10-11T23:26:18.496Z,101149.78
2022-10-11T23:29:26.474Z,101150.00
2022-10-11T23:32:42.494Z,101151.91
2022-10-11T23:35:51.019Z,101158.38
2022-10-11T23:39:05.492Z,101155.16
2022-10-11T23:42:14.026Z,101158.87
2022-10-11T23:45:22.507Z,101158.84
2022-10-11T23:48:31.011Z,101156.66
2022-10-11T23:51:39.510Z,101162.06
2022-10-11T23:54:54.489Z,101157.12
2022-10-11T23:58:03.056Z,101157.94
